sensor_id;sensor_type;location;lat;lon;timestamp;pressure;altitude;pressure_sealevel;temperature;humidity
38780;BME280;29273;49.962;9.768;2023-05-10T00:02:07;98996.50;;;19.42;58.50
38780;BME280;29273;49.962;9.768;2023-05-10T00:04:33;98994.09;;;19.40;58.72
38780;BME280;29273;49.962;9.768;2023-05-10T00:06:58;98995.16;;;19.39;58.67
38780;BME280;29273;49.962;9.768;2023-05-10T00:09:24;98994.66;;;19.37;58.20
38780;BME280;29273;49.962;9.768;2023-05-10T00:11:49;98990.34;;;19.36;58.28
38780;BME280;29273;49.962;9.768;2023-05-10T00:14:15;98992.50;;;19.34;58.41
38780;BME280;29273;49.962;9.768;2023-05-10T00:16:40;98986.34;;;19.34;58.64
38780;BME280;29273;49.962;9.768;2023-05-10T00:19:06;98987.41;;;19.33;58.68
38780;BME280;29273;49.962;9.768;2023-05-10T00:21:31;98983.16;;;19.32;58.93
38780;BME280;29273;49.962;9.768;2023-05-10T00:23:59;98982.59;;;19.30;58.67
38780;BME280;29273;49.962;9.768;2023-05-10T00:26:24;98979.91;;;19.30;58.20
38780;BME280;29273;49.962;9.768;2023-05-10T00:28:53;98976.72;;;19.28;58.22
38780;BME280;29273;49.962;9.768;2023-05-10T00:31:18;98983.16;;;19.27;58.74
38780;BME280;29273;49.962;9.768;2023-05-10T00:33:44;98981.06;;;19.23;58.44
38780;BME280;29273;49.962;9.768;2023-05-10T00:36:09;98975.69;;;19.23;58.79
38780;BME280;29273;49.962;9.768;2023-05-10T00:38:35;98975.16;;;19.21;58.33
38780;BME280;29273;49.962;9.768;2023-05-10T00:41:02;98978.94;;;19.20;58.73
38780;BME280;29273;49.962;9.768;2023-05-10T00:43:30;98982.69;;;19.19;58.85
38780;BME280;29273;49.962;9.768;2023-05-10T00:45:55;98978.38;;;19.18;58.60
38780;BME280;29273;49.962;9.768;2023-05-10T00:48:21;98974.91;;;19.18;58.46
38780;BME280;29273;49.962;9.768;2023-05-10T00:50:47;98975.47;;;19.15;58.92
38780;BME280;29273;49.962;9.768;2023-05-10T00:53:14;98975.47;;;19.15;58.29
38780;BME280;29273;49.962;9.768;2023-05-10T00:55:40;98981.09;;;19.13;58.63
38780;BME280;29273;49.962;9.768;2023-05-10T00:58:05;98975.22;;;19.11;58.88
38780;BME280;29273;49.962;9.768;2023-05-10T01:00:33;98972.25;;;19.13;57.72
38780;BME280;29273;49.962;9.768;2023-05-10T01:02:58;98973.09;;;19.08;59.13
38780;BME280;29273;49.962;9.768;2023-05-10T01:05:24;98973.34;;;19.07;58.88
38780;BME280;29273;49.962;9.768;2023-05-10T01:07:50;98976.63;;;19.03;58.81
38780;BME280;29273;49.962;9.768;2023-05-10T01:10:16;98968.84;;;19.02;58.89
38780;BME280;29273;49.962;9.768;2023-05-10T01:12:43;98978.75;;;19.01;58.34
38780;BME280;29273;49.962;9.768;2023-05-10T01:15:11;98978.25;;;18.99;58.41
38780;BME280;29273;49.962;9.768;2023-05-10T01:17:38;98980.13;;;18.99;58.76
38780;BME280;29273;49.962;9.768;2023-05-10T01:20:05;98987.66;;;18.97;58.33
38780;BME280;29273;49.962;9.768;2023-05-10T01:22:46;98983.63;;;18.94;58.81
38780;BME280;29273;49.962;9.768;2023-05-10T01:25:34;98990.34;;;18.97;56.64
38780;BME280;29273;49.962;9.768;2023-05-10T01:28:17;98983.13;;;18.92;58.75
38780;BME280;29273;49.962;9.768;2023-05-10T01:33:43;99001.09;;;18.92;56.24
38780;BME280;29273;49.962;9.768;2023-05-10T01:36:34;99006.75;;;18.90;56.03
38780;BME280;29273;49.962;9.768;2023-05-10T01:39:22;99005.97;;;18.84;55.11
38780;BME280;29273;49.962;9.768;2023-05-10T01:41:54;99006.22;;;18.83;56.69
38780;BME280;29273;49.962;9.768;2023-05-10T01:47:21;99012.38;;;18.78;54.63
38780;BME280;29273;49.962;9.768;2023-05-10T01:49:52;99019.69;;;18.67;55.91
38780;BME280;29273;49.962;9.768;2023-05-10T01:52:19;99019.16;;;18.65;55.82
38780;BME280;29273;49.962;9.768;2023-05-10T01:54:51;99020.50;;;18.63;54.93
38780;BME280;29273;49.962;9.768;2023-05-10T01:57:20;99028.84;;;18.56;56.03
38780;BME280;29273;49.962;9.768;2023-05-10T01:59:49;99026.94;;;18.57;55.17
38780;BME280;29273;49.962;9.768;2023-05-10T02:02:17;99028.59;;;18.53;55.30
38780;BME280;29273;49.962;9.768;2023-05-10T02:04:44;99032.91;;;18.48;56.08
38780;BME280;29273;49.962;9.768;2023-05-10T02:07:11;99038.25;;;18.48;55.66
38780;BME280;29273;49.962;9.768;2023-05-10T02:09:38;99034.50;;;18.44;55.81
38780;BME280;29273;49.962;9.768;2023-05-10T02:12:04;99029.41;;;18.43;55.19
38780;BME280;29273;49.962;9.768;2023-05-10T02:14:35;99037.44;;;18.43;55.59
38780;BME280;29273;49.962;9.768;2023-05-10T02:17:04;99036.94;;;18.41;55.50
38780;BME280;29273;49.962;9.768;2023-05-10T02:19:32;99038.78;;;18.35;55.57
38780;BME280;29273;49.962;9.768;2023-05-10T02:21:59;99036.69;;;18.32;56.11
38780;BME280;29273;49.962;9.768;2023-05-10T02:24:26;99042.59;;;18.29;56.67
38780;BME280;29273;49.962;9.768;2023-05-10T02:26:54;99048.22;;;18.27;55.82
38780;BME280;29273;49.962;9.768;2023-05-10T02:29:23;99056.25;;;18.27;55.25
38780;BME280;29273;49.962;9.768;2023-05-10T02:31:51;99047.13;;;18.23;55.43
38780;BME280;29273;49.962;9.768;2023-05-10T02:34:18;99056.53;;;18.21;56.14
38780;BME280;29273;49.962;9.768;2023-05-10T02:36:45;99058.13;;;18.17;56.68
38780;BME280;29273;49.962;9.768;2023-05-10T02:39:12;99054.38;;;18.18;55.24
38780;BME280;29273;49.962;9.768;2023-05-10T02:41:40;99057.88;;;18.13;55.27
38780;BME280;29273;49.962;9.768;2023-05-10T02:44:08;99051.19;;;18.10;55.47
38780;BME280;29273;49.962;9.768;2023-05-10T02:46:35;99061.09;;;18.05;56.56
38780;BME280;29273;49.962;9.768;2023-05-10T02:49:02;99056.56;;;18.05;56.39
38780;BME280;29273;49.962;9.768;2023-05-10T02:51:31;99057.34;;;18.06;55.57
38780;BME280;29273;49.962;9.768;2023-05-10T02:54:06;99060.28;;;18.04;55.47
38780;BME280;29273;49.962;9.768;2023-05-10T02:56:35;99057.34;;;18.01;55.71
38780;BME280;29273;49.962;9.768;2023-05-10T02:59:01;99056.84;;;17.99;56.02
38780;BME280;29273;49.962;9.768;2023-05-10T03:01:27;99053.59;;;17.97;56.43
38780;BME280;29273;49.962;9.768;2023-05-10T03:03:52;99055.47;;;17.96;56.71
38780;BME280;29273;49.962;9.768;2023-05-10T03:06:18;99055.47;;;17.96;55.94
38780;BME280;29273;49.962;9.768;2023-05-10T03:08:44;99058.94;;;17.97;56.56
38780;BME280;29273;49.962;9.768;2023-05-10T03:11:36;99064.88;;;17.99;54.84
38780;BME280;29273;49.962;9.768;2023-05-10T03:14:34;99056.28;;;17.97;55.20
38780;BME280;29273;49.962;9.768;2023-05-10T03:17:22;99055.75;;;18.00;55.46
38780;BME280;29273;49.962;9.768;2023-05-10T03:19:57;99065.66;;;17.99;54.91
38780;BME280;29273;49.962;9.768;2023-05-10T03:22:37;99062.72;;;17.96;55.11
38780;BME280;29273;49.962;9.768;2023-05-10T03:25:06;99070.50;;;17.92;55.82
38780;BME280;29273;49.962;9.768;2023-05-10T03:27:34;99066.72;;;17.88;55.96
38780;BME280;29273;49.962;9.768;2023-05-10T03:30:02;99069.63;;;17.86;55.50
38780;BME280;29273;49.962;9.768;2023-05-10T03:32:31;99074.19;;;17.81;57.12
38780;BME280;29273;49.962;9.768;2023-05-10T03:34:58;99072.84;;;17.78;56.65
38780;BME280;29273;49.962;9.768;2023-05-10T03:37:24;99072.31;;;17.76;57.04
38780;BME280;29273;49.962;9.768;2023-05-10T03:39:50;99072.59;;;17.74;57.37
38780;BME280;29273;49.962;9.768;2023-05-10T03:42:15;99084.34;;;17.73;56.61
38780;BME280;29273;49.962;9.768;2023-05-10T03:44:43;99079.00;;;17.73;57.69
38780;BME280;29273;49.962;9.768;2023-05-10T03:47:08;99087.31;;;17.72;57.24
38780;BME280;29273;49.962;9.768;2023-05-10T03:49:34;99083.81;;;17.71;57.70
38780;BME280;29273;49.962;9.768;2023-05-10T03:52:00;99083.81;;;17.71;57.35
38780;BME280;29273;49.962;9.768;2023-05-10T03:54:26;99084.66;;;17.72;57.35
38780;BME280;29273;49.962;9.768;2023-05-10T03:56:51;99088.38;;;17.71;56.69
38780;BME280;29273;49.962;9.768;2023-05-10T03:59:18;99082.22;;;17.70;57.69
38780;BME280;29273;49.962;9.768;2023-05-10T04:01:44;99091.31;;;17.69;57.41
38780;BME280;29273;49.962;9.768;2023-05-10T04:04:09;99100.16;;;17.70;57.12
38780;BME280;29273;49.962;9.768;2023-05-10T04:06:35;99097.75;;;17.68;57.64
38780;BME280;29273;49.962;9.768;2023-05-10T04:09:00;99098.28;;;17.65;57.84
38780;BME280;29273;49.962;9.768;2023-05-10T04:11:29;99101.50;;;17.67;58.05
38780;BME280;29273;49.962;9.768;2023-05-10T04:13:54;99106.84;;;17.67;58.07
38780;BME280;29273;49.962;9.768;2023-05-10T04:16:20;99106.03;;;17.67;57.63
38780;BME280;29273;49.962;9.768;2023-05-10T04:18:45;99094.78;;;17.65;57.34
38780;BME280;29273;49.962;9.768;2023-05-10T04:21:14;99100.16;;;17.70;56.53
38780;BME280;29273;49.962;9.768;2023-05-10T04:23:40;99100.97;;;17.65;57.29
38780;BME280;29273;49.962;9.768;2023-05-10T04:26:06;99106.31;;;17.65;57.83
38780;BME280;29273;49.962;9.768;2023-05-10T04:28:31;99105.50;;;17.65;57.56
38780;BME280;29273;49.962;9.768;2023-05-10T04:31:04;99112.75;;;17.69;56.31
38780;BME280;29273;49.962;9.768;2023-05-10T04:33:30;99115.41;;;17.64;57.66
38780;BME280;29273;49.962;9.768;2023-05-10T04:35:56;99119.97;;;17.64;57.96
38780;BME280;29273;49.962;9.768;2023-05-10T04:38:21;99127.19;;;17.63;58.05
38780;BME280;29273;49.962;9.768;2023-05-10T04:40:47;99129.59;;;17.60;57.98
38780;BME280;29273;49.962;9.768;2023-05-10T04:43:12;99133.34;;;17.59;57.89
38780;BME280;29273;49.962;9.768;2023-05-10T04:45:38;99138.72;;;17.59;57.02
38780;BME280;29273;49.962;9.768;2023-05-10T04:48:04;99142.72;;;17.56;57.50
38780;BME280;29273;49.962;9.768;2023-05-10T04:50:30;99146.44;;;17.55;57.13
38780;BME280;29273;49.962;9.768;2023-05-10T04:52:55;99146.44;;;17.55;57.57
38780;BME280;29273;49.962;9.768;2023-05-10T04:55:20;99139.75;;;17.52;57.26
38780;BME280;29273;49.962;9.768;2023-05-10T04:57:46;99145.91;;;17.53;57.05
38780;BME280;29273;49.962;9.768;2023-05-10T05:00:12;99148.59;;;17.53;56.85
38780;BME280;29273;49.962;9.768;2023-05-10T05:02:37;99147.53;;;17.54;57.35
38780;BME280;29273;49.962;9.768;2023-05-10T05:05:03;99149.94;;;17.55;57.35
38780;BME280;29273;49.962;9.768;2023-05-10T05:07:28;99148.84;;;17.56;57.41
38780;BME280;29273;49.962;9.768;2023-05-10T05:09:55;99152.34;;;17.57;58.09
38780;BME280;29273;49.962;9.768;2023-05-10T05:12:21;99154.78;;;17.59;58.08
38780;BME280;29273;49.962;9.768;2023-05-10T05:14:46;99153.94;;;17.58;57.38
38780;BME280;29273;49.962;9.768;2023-05-10T05:17:12;99159.31;;;17.58;56.85
38780;BME280;29273;49.962;9.768;2023-05-10T05:19:37;99159.03;;;17.60;57.52
38780;BME280;29273;49.962;9.768;2023-05-10T05:22:03;99160.94;;;17.59;58.24
38780;BME280;29273;49.962;9.768;2023-05-10T05:24:28;99167.06;;;17.60;57.43
38780;BME280;29273;49.962;9.768;2023-05-10T05:26:54;99172.16;;;17.61;57.15
38780;BME280;29273;49.962;9.768;2023-05-10T05:29:19;99174.84;;;17.61;57.33
38780;BME280;29273;49.962;9.768;2023-05-10T05:31:45;99171.91;;;17.63;57.52
38780;BME280;29273;49.962;9.768;2023-05-10T05:34:10;99180.47;;;17.65;57.14
38780;BME280;29273;49.962;9.768;2023-05-10T05:36:37;99174.59;;;17.68;57.31
38780;BME280;29273;49.962;9.768;2023-05-10T05:39:06;99177.00;;;17.69;57.85
38780;BME280;29273;49.962;9.768;2023-05-10T05:41:31;99176.22;;;17.69;58.03
38780;BME280;29273;49.962;9.768;2023-05-10T05:43:56;99179.44;;;17.71;57.22
38780;BME280;29273;49.962;9.768;2023-05-10T05:46:22;99176.50;;;17.72;57.56
38780;BME280;29273;49.962;9.768;2023-05-10T05:48:47;99181.59;;;17.74;57.06
38780;BME280;29273;49.962;9.768;2023-05-10T05:51:13;99182.13;;;17.76;57.02
38780;BME280;29273;49.962;9.768;2023-05-10T05:53:38;99185.06;;;17.80;56.72
38780;BME280;29273;49.962;9.768;2023-05-10T05:56:04;99186.44;;;17.82;58.04
38780;BME280;29273;49.962;9.768;2023-05-10T05:58:29;99190.44;;;17.85;57.22
38780;BME280;29273;49.962;9.768;2023-05-10T06:00:55;99181.09;;;17.87;56.77
38780;BME280;29273;49.962;9.768;2023-05-10T06:03:20;99184.84;;;17.91;57.80
38780;BME280;29273;49.962;9.768;2023-05-10T06:05:46;99186.22;;;17.94;57.49
38780;BME280;29273;49.962;9.768;2023-05-10T06:08:12;99188.09;;;17.99;57.32
38780;BME280;29273;49.962;9.768;2023-05-10T06:10:37;99196.41;;;18.02;56.99
38780;BME280;29273;49.962;9.768;2023-05-10T06:13:03;99192.38;;;18.05;57.06
38780;BME280;29273;49.962;9.768;2023-05-10T06:15:28;99198.00;;;18.08;57.16
38780;BME280;29273;49.962;9.768;2023-05-10T06:17:54;99194.78;;;18.11;56.60
38780;BME280;29273;49.962;9.768;2023-05-10T06:20:19;99192.38;;;18.15;57.15
38780;BME280;29273;49.962;9.768;2023-05-10T06:22:45;99198.03;;;18.19;56.92
38780;BME280;29273;49.962;9.768;2023-05-10T06:25:10;99199.09;;;18.23;57.20
38780;BME280;29273;49.962;9.768;2023-05-10T06:27:36;99204.47;;;18.28;57.11
38780;BME280;29273;49.962;9.768;2023-05-10T06:30:02;99216.28;;;18.32;57.63
38780;BME280;29273;49.962;9.768;2023-05-10T06:32:30;99212.50;;;18.33;56.97
38780;BME280;29273;49.962;9.768;2023-05-10T06:34:55;99212.78;;;18.37;56.64
38780;BME280;29273;49.962;9.768;2023-05-10T06:37:20;99210.09;;;18.37;56.22
38780;BME280;29273;49.962;9.768;2023-05-10T06:39:46;99215.19;;;18.38;55.93
38780;BME280;29273;49.962;9.768;2023-05-10T06:42:12;99219.22;;;18.36;55.76
38780;BME280;29273;49.962;9.768;2023-05-10T06:44:37;99221.38;;;18.34;56.54
38780;BME280;29273;49.962;9.768;2023-05-10T06:47:02;99224.56;;;18.30;56.36
38780;BME280;29273;49.962;9.768;2023-05-10T06:49:28;99219.75;;;18.27;56.64
38780;BME280;29273;49.962;9.768;2023-05-10T06:51:55;99218.94;;;18.27;56.81
38780;BME280;29273;49.962;9.768;2023-05-10T06:54:20;99221.59;;;18.22;56.93
38780;BME280;29273;49.962;9.768;2023-05-10T06:56:46;99220.53;;;18.18;57.02
38780;BME280;29273;49.962;9.768;2023-05-10T06:59:11;99229.63;;;18.17;57.39
38780;BME280;29273;49.962;9.768;2023-05-10T07:01:39;99231.78;;;18.15;57.51
38780;BME280;29273;49.962;9.768;2023-05-10T07:04:04;99224.28;;;18.11;57.58
38780;BME280;29273;49.962;9.768;2023-05-10T07:06:30;99222.16;;;18.14;57.79
38780;BME280;29273;49.962;9.768;2023-05-10T07:08:55;99225.38;;;18.16;57.57
38780;BME280;29273;49.962;9.768;2023-05-10T07:11:20;99231.00;;;18.19;57.03
38780;BME280;29273;49.962;9.768;2023-05-10T07:13:46;99223.22;;;18.23;57.44
38780;BME280;29273;49.962;9.768;2023-05-10T07:16:12;99232.06;;;18.28;57.68
38780;BME280;29273;49.962;9.768;2023-05-10T07:18:37;99232.34;;;18.32;57.92
38780;BME280;29273;49.962;9.768;2023-05-10T07:21:03;99237.97;;;18.36;57.45
38780;BME280;29273;49.962;9.768;2023-05-10T07:23:28;99230.47;;;18.38;57.33
38780;BME280;29273;49.962;9.768;2023-05-10T07:25:55;99239.59;;;18.42;56.78
38780;BME280;29273;49.962;9.768;2023-05-10T07:28:23;99240.94;;;18.44;56.69
38780;BME280;29273;49.962;9.768;2023-05-10T07:30:49;99238.25;;;18.44;56.45
38780;BME280;29273;49.962;9.768;2023-05-10T07:33:15;99244.41;;;18.45;56.28
38780;BME280;29273;49.962;9.768;2023-05-10T07:35:41;99247.91;;;18.45;56.10
38780;BME280;29273;49.962;9.768;2023-05-10T07:38:07;99250.59;;;18.45;56.34
38780;BME280;29273;49.962;9.768;2023-05-10T07:40:33;99250.59;;;18.45;56.21
38780;BME280;29273;49.962;9.768;2023-05-10T07:42:58;99251.38;;;18.46;56.66
38780;BME280;29273;49.962;9.768;2023-05-10T07:45:25;99255.69;;;18.47;56.75
38780;BME280;29273;49.962;9.768;2023-05-10T07:47:50;99253.00;;;18.47;56.28
38780;BME280;29273;49.962;9.768;2023-05-10T07:50:16;99251.91;;;18.48;56.56
38780;BME280;29273;49.962;9.768;2023-05-10T07:52:41;99254.06;;;18.51;56.60
38780;BME280;29273;49.962;9.768;2023-05-10T07:55:07;99259.16;;;18.53;56.18
38780;BME280;29273;49.962;9.768;2023-05-10T07:57:34;99261.31;;;18.56;55.20
38780;BME280;29273;49.962;9.768;2023-05-10T07:59:59;99260.22;;;18.57;54.91
38780;BME280;29273;49.962;9.768;2023-05-10T08:02:25;99258.38;;;18.57;54.95
38780;BME280;29273;49.962;9.768;2023-05-10T08:04:50;99261.59;;;18.59;55.04
38780;BME280;29273;49.962;9.768;2023-05-10T08:07:16;99265.06;;;18.60;54.98
38780;BME280;29273;49.962;9.768;2023-05-10T08:09:42;99263.22;;;18.60;54.01
38780;BME280;29273;49.962;9.768;2023-05-10T08:12:08;99261.31;;;18.61;54.22
38780;BME280;29273;49.962;9.768;2023-05-10T08:14:33;99262.13;;;18.61;54.29
38780;BME280;29273;49.962;9.768;2023-05-10T08:16:59;99276.88;;;18.64;54.23
38780;BME280;29273;49.962;9.768;2023-05-10T08:19:24;99270.16;;;18.66;54.25
38780;BME280;29273;49.962;9.768;2023-05-10T08:21:50;99273.09;;;18.70;54.93
38780;BME280;29273;49.962;9.768;2023-05-10T08:24:15;99281.19;;;18.75;54.82
38780;BME280;29273;49.962;9.768;2023-05-10T08:26:40;99280.34;;;18.80;55.20
38780;BME280;29273;49.962;9.768;2023-05-10T08:29:06;99288.44;;;18.85;54.36
38780;BME280;29273;49.962;9.768;2023-05-10T08:31:31;99295.69;;;18.84;53.70
38780;BME280;29273;49.962;9.768;2023-05-10T08:33:57;99301.03;;;18.90;53.39
38780;BME280;29273;49.962;9.768;2023-05-10T08:36:22;99290.56;;;18.93;53.63
38780;BME280;29273;49.962;9.768;2023-05-10T08:38:53;99298.63;;;19.03;53.26
38780;BME280;29273;49.962;9.768;2023-05-10T08:41:23;99293.78;;;19.06;53.28
38780;BME280;29273;49.962;9.768;2023-05-10T08:43:52;99299.44;;;19.04;52.70
38780;BME280;29273;49.962;9.768;2023-05-10T08:46:19;99301.31;;;19.09;52.89
38780;BME280;29273;49.962;9.768;2023-05-10T08:48:46;99304.53;;;19.11;52.99
38780;BME280;29273;49.962;9.768;2023-05-10T08:51:24;99306.94;;;19.17;52.85
38780;BME280;29273;49.962;9.768;2023-05-10T08:53:54;99301.31;;;19.14;53.53
38780;BME280;29273;49.962;9.768;2023-05-10T08:56:19;99301.28;;;19.19;53.78
38780;BME280;29273;49.962;9.768;2023-05-10T08:58:45;99307.97;;;19.21;52.81
38780;BME280;29273;49.962;9.768;2023-05-10T09:01:12;99310.66;;;19.27;52.95
38780;BME280;29273;49.962;9.768;2023-05-10T09:03:38;99312.28;;;19.28;53.05
38780;BME280;29273;49.962;9.768;2023-05-10T09:06:04;99313.91;;;19.29;53.13
38780;BME280;29273;49.962;9.768;2023-05-10T09:08:30;99310.38;;;19.28;52.68
38780;BME280;29273;49.962;9.768;2023-05-10T09:10:56;99326.22;;;19.30;52.14
38780;BME280;29273;49.962;9.768;2023-05-10T09:13:23;99318.16;;;19.30;52.08
38780;BME280;29273;49.962;9.768;2023-05-10T09:15:49;99323.28;;;19.31;52.80
38780;BME280;29273;49.962;9.768;2023-05-10T09:18:14;99324.09;;;19.32;51.67
38780;BME280;29273;49.962;9.768;2023-05-10T09:20:40;99329.16;;;19.33;52.40
38780;BME280;29273;49.962;9.768;2023-05-10T09:23:06;99331.84;;;19.33;51.99
38780;BME280;29273;49.962;9.768;2023-05-10T09:25:32;99327.03;;;19.35;51.98
38780;BME280;29273;49.962;9.768;2023-05-10T09:28:00;99324.63;;;19.39;51.92
38780;BME280;29273;49.962;9.768;2023-05-10T09:30:28;99330.75;;;19.45;52.46
38780;BME280;29273;49.962;9.768;2023-05-10T09:32:55;99323.25;;;19.47;53.01
38780;BME280;29273;49.962;9.768;2023-05-10T09:35:23;99328.06;;;19.55;52.56
38780;BME280;29273;49.962;9.768;2023-05-10T09:37:51;99332.59;;;19.59;51.85
38780;BME280;29273;49.962;9.768;2023-05-10T09:40:28;99325.63;;;19.69;52.69
38780;BME280;29273;49.962;9.768;2023-05-10T09:43:01;99322.91;;;19.74;52.55
38780;BME280;29273;49.962;9.768;2023-05-10T09:45:29;99332.31;;;19.76;52.77
38780;BME280;29273;49.962;9.768;2023-05-10T09:47:55;99330.72;;;19.81;52.09
38780;BME280;29273;49.962;9.768;2023-05-10T09:50:22;99333.91;;;19.88;52.00
38780;BME280;29273;49.962;9.768;2023-05-10T09:52:55;99335.75;;;19.98;51.80
38780;BME280;29273;49.962;9.768;2023-05-10T09:55:40;99327.41;;;19.99;50.81
38780;BME280;29273;49.962;9.768;2023-05-10T09:58:07;99325.25;;;20.01;50.47
38780;BME280;29273;49.962;9.768;2023-05-10T10:00:43;99328.13;;;20.15;51.54
38780;BME280;29273;49.962;9.768;2023-05-10T10:03:18;99323.53;;;20.21;52.25
38780;BME280;29273;49.962;9.768;2023-05-10T10:05:46;99320.56;;;20.22;50.79
38780;BME280;29273;49.962;9.768;2023-05-10T10:08:12;99326.19;;;20.26;49.75
38780;BME280;29273;49.962;9.768;2023-05-10T10:10:39;99322.94;;;20.34;49.94
38780;BME280;29273;49.962;9.768;2023-05-10T10:13:10;99325.84;;;20.38;49.92
38780;BME280;29273;49.962;9.768;2023-05-10T10:15:36;99320.44;;;20.43;48.80
38780;BME280;29273;49.962;9.768;2023-05-10T10:18:01;99322.59;;;20.46;49.38
38780;BME280;29273;49.962;9.768;2023-05-10T10:20:29;99319.34;;;20.49;48.90
38780;BME280;29273;49.962;9.768;2023-05-10T10:22:55;99314.75;;;20.49;48.96
38780;BME280;29273;49.962;9.768;2023-05-10T10:25:21;99318.25;;;20.50;48.62
38780;BME280;29273;49.962;9.768;2023-05-10T10:35:29;99323.38;;;20.46;48.96
38780;BME280;29273;49.962;9.768;2023-05-10T10:37:56;99315.59;;;20.45;49.05
38780;BME280;29273;49.962;9.768;2023-05-10T10:42:51;99319.38;;;20.44;49.37
38780;BME280;29273;49.962;9.768;2023-05-10T10:45:17;99323.38;;;20.46;49.21
38780;BME280;29273;49.962;9.768;2023-05-10T10:47:43;99322.84;;;20.44;49.07
38780;BME280;29273;49.962;9.768;2023-05-10T10:50:10;99324.75;;;20.44;48.89
38780;BME280;29273;49.962;9.768;2023-05-10T10:52:45;99326.84;;;20.52;49.58
38780;BME280;29273;49.962;9.768;2023-05-10T10:55:18;99324.97;;;20.52;49.54
38780;BME280;29273;49.962;9.768;2023-05-10T10:57:46;99327.16;;;20.45;48.87
38780;BME280;29273;49.962;9.768;2023-05-10T11:00:35;99330.91;;;20.49;49.38
38780;BME280;29273;49.962;9.768;2023-05-10T11:03:05;99324.69;;;20.54;49.38
38780;BME280;29273;49.962;9.768;2023-05-10T11:05:38;99331.09;;;20.58;48.90
38780;BME280;29273;49.962;9.768;2023-05-10T11:08:17;99326.00;;;20.62;48.87
38780;BME280;29273;49.962;9.768;2023-05-10T11:13:41;99323.81;;;20.69;49.31
38780;BME280;29273;49.962;9.768;2023-05-10T11:16:12;99316.72;;;20.78;49.43
38780;BME280;29273;49.962;9.768;2023-05-10T11:18:38;99318.63;;;20.78;48.10
38780;BME280;29273;49.962;9.768;2023-05-10T11:21:04;99308.88;;;20.87;48.37
38780;BME280;29273;49.962;9.768;2023-05-10T11:26:07;99305.72;;;21.09;49.39
38780;BME280;29273;49.962;9.768;2023-05-10T11:28:42;99311.50;;;21.21;49.46
38780;BME280;29273;49.962;9.768;2023-05-10T11:31:08;99305.84;;;21.23;48.08
38780;BME280;29273;49.962;9.768;2023-05-10T11:33:50;99315.66;;;21.38;48.84
38780;BME280;29273;49.962;9.768;2023-05-10T11:36:24;99310.22;;;21.43;48.36
38780;BME280;29273;49.962;9.768;2023-05-10T11:38:51;99313.78;;;21.38;46.88
38780;BME280;29273;49.962;9.768;2023-05-10T11:41:18;99315.59;;;21.43;47.36
38780;BME280;29273;49.962;9.768;2023-05-10T11:43:49;99318.06;;;21.39;46.97
38780;BME280;29273;49.962;9.768;2023-05-10T11:46:15;99320.25;;;21.37;45.74
38780;BME280;29273;49.962;9.768;2023-05-10T11:48:42;99317.03;;;21.35;45.98
38780;BME280;29273;49.962;9.768;2023-05-10T11:51:08;99321.09;;;21.33;45.58
38780;BME280;29273;49.962;9.768;2023-05-10T11:53:34;99325.19;;;21.30;45.51
38780;BME280;29273;49.962;9.768;2023-05-10T11:56:10;99332.97;;;21.32;45.46
38780;BME280;29273;49.962;9.768;2023-05-10T11:58:38;99331.91;;;21.28;46.37
38780;BME280;29273;49.962;9.768;2023-05-10T12:01:05;99335.69;;;21.26;46.75
38780;BME280;29273;49.962;9.768;2023-05-10T12:03:31;99334.16;;;21.20;45.56
38780;BME280;29273;49.962;9.768;2023-05-10T12:05:57;99336.34;;;21.18;45.73
38780;BME280;29273;49.962;9.768;2023-05-10T12:08:25;99337.41;;;21.17;46.53
38780;BME280;29273;49.962;9.768;2023-05-10T12:10:52;99335.28;;;21.14;46.75
38780;BME280;29273;49.962;9.768;2023-05-10T12:13:19;99347.13;;;21.13;46.54
38780;BME280;29273;49.962;9.768;2023-05-10T12:15:45;99343.91;;;21.11;46.39
38780;BME280;29273;49.962;9.768;2023-05-10T12:18:12;99336.34;;;21.13;46.67
38780;BME280;29273;49.962;9.768;2023-05-10T12:20:39;99329.66;;;21.11;46.31
38780;BME280;29273;49.962;9.768;2023-05-10T12:23:05;99335.56;;;21.13;46.64
38780;BME280;29273;49.962;9.768;2023-05-10T12:25:32;99333.66;;;21.13;46.64
38780;BME280;29273;49.962;9.768;2023-05-10T12:27:59;99339.03;;;21.13;46.82
38780;BME280;29273;49.962;9.768;2023-05-10T12:30:31;99336.06;;;21.15;46.93
38780;BME280;29273;49.962;9.768;2023-05-10T12:33:10;99360.84;;;21.17;47.23
38780;BME280;29273;49.962;9.768;2023-05-10T12:35:47;99363.00;;;21.15;47.50
38780;BME280;29273;49.962;9.768;2023-05-10T12:38:31;99364.66;;;21.11;47.02
38780;BME280;29273;49.962;9.768;2023-05-10T12:40:58;99379.53;;;21.03;45.87
38780;BME280;29273;49.962;9.768;2023-05-10T12:43:24;99374.19;;;20.98;45.77
38780;BME280;29273;49.962;9.768;2023-05-10T12:45:50;99386.06;;;20.92;45.49
38780;BME280;29273;49.962;9.768;2023-05-10T12:48:15;99378.56;;;20.88;44.23
38780;BME280;29273;49.962;9.768;2023-05-10T12:50:41;99385.56;;;20.84;45.74
38780;BME280;29273;49.962;9.768;2023-05-10T12:53:06;99384.25;;;20.82;44.59
38780;BME280;29273;49.962;9.768;2023-05-10T12:55:32;99396.09;;;20.81;45.08
38780;BME280;29273;49.962;9.768;2023-05-10T12:57:57;99376.19;;;20.82;44.99
38780;BME280;29273;49.962;9.768;2023-05-10T13:00:23;99388.28;;;20.84;44.86
38780;BME280;29273;49.962;9.768;2023-05-10T13:02:48;99394.44;;;20.85;44.68
38780;BME280;29273;49.962;9.768;2023-05-10T13:05:14;99391.75;;;20.85;44.90
38780;BME280;29273;49.962;9.768;2023-05-10T13:07:39;99396.06;;;20.86;44.57
38780;BME280;29273;49.962;9.768;2023-05-10T13:10:05;99387.44;;;20.89;44.97
38780;BME280;29273;49.962;9.768;2023-05-10T13:12:31;99386.09;;;20.86;44.85
38780;BME280;29273;49.962;9.768;2023-05-10T13:14:57;99391.75;;;20.90;45.66
38780;BME280;29273;49.962;9.768;2023-05-10T13:17:25;99395.22;;;20.91;45.67
38780;BME280;29273;49.962;9.768;2023-05-10T13:19:50;99391.16;;;20.93;46.02
38780;BME280;29273;49.962;9.768;2023-05-10T13:22:16;99393.56;;;20.95;45.85
38780;BME280;29273;49.962;9.768;2023-05-10T13:24:41;99402.47;;;20.95;46.33